Bongor Airport

FTTB · Mayo-Kebbi Est, Ciad

Storia di METAR FTTB · Bongor Airport

Di seguito sono riportati i METAR degli ultimi giorni. Seleziona un anno per sfogliare i METAR più vecchi, dall'anno 2007 in poi.

22 luglio 2024

Tempo Codice Tempo meteorologico Temp. Vista Base nuvolosa Vento METAR/SPECI
20:00
V
0 °C 10 km+ - 360° 360° 0 kt METAR FKKL 221900Z /////KT 9999 TS SCT015 SCT025CB ///// Q1016
16:00
V
32 °C 10 km+ - 300° 300° 4 kt METAR FKKL 221500Z 30004KT 270V010 9999 FEW015 SCT020 32/22 Q1013
13:00
V
30 °C 10 km+ - 330° 330° 5 kt METAR FKKL 221200Z 33005KT 290V360 9999 FEW015 SCT020 30/22 Q1015
11:00
V
30 °C 10 km+ - 280° 280° 8 kt METAR FKKL 221000Z 28008KT 240V300 9999 SCT020 30/23 Q1016
10:00
V
29 °C 10 km+ - 270° 270° 7 - 18 kt METAR FKKL 220900Z 27007G18KT 210V310 9999 FEW020 29/23 Q1017
09:00
V
27 °C 10 km+ - 260° 260° 7 kt METAR FKKL 220800Z 26007KT 230V290 9999 FEW020 27/22 Q1017
08:00
V
0 °C 10 km+ - 360° 360° 0 kt METAR FKKL 220700Z /////KT 9999 FEW020 ///// Q1016

20 luglio 2024

Tempo Codice Tempo meteorologico Temp. Vista Base nuvolosa Vento METAR/SPECI
12:00
V
28 °C 10 km+ - 250° 250° 12 kt METAR FKKL 201100Z 25012KT 9999 FEW025 28/23 Q1013
10:00
V
27 °C 10 km+ - 250° 250° 11 kt METAR FKKL 200900Z 25011KT 9999 FEW025 27/22 Q1015
09:00
V
26 °C 10 km+ - 230° 230° 10 kt METAR FKKL 200800Z 23010KT 210V270 9999 FEW025 26/22 Q1015
08:00
V
0 °C 10 km+ - 360° 360° 0 kt METAR FKKL 200700Z /////KT 9999 FEW020 ///// Q1015
Segnala modifiche